Tiempo atmosférico en la estación meteorológica de Sant Hilari, Girona (810 m.)



Fecha
DESCASC
Temp. máxima en grados centígrados (hora)
DESCASC
Temp. mínima en grados centígrados (hora)
DESCASC
Temp. media en grados centígrados
DESCASC
Racha de viento máxima en m/sg (hora)
DESCASC
Velocidad máxima media en intervalos de 10 minutos(hora)
DESCASC
Precipitaciones diarias en mm
DESCASC
Precipitaciones de 00:00 a 06:00 en mm
DESCASC
Precipitaciones de 06:00 a 12:00 en mm
DESCASC
Precipitaciones de 12:00 a 18:00 en mm
DESCASC
Precipitaciones de 18:00 a 24:00 en mm
DESCASC
25-04-2019 15.3 (17:20) 7.1 (20:40) 11.2 13.89 (12:30) 7.5 (11:30) 1.4 0 0 0.4 1
24-04-2019 14.5 (16:30) 6.2 (07:40) 10.3 15.28 (22:10) 7.78 (22:10) 0 0 0 0 0
23-04-2019 16 (17:40) 8.6 (03:00) 12.3 10.56 (20:50) 5.28 (20:50) 3 3 0 0 0
22-04-2019 10.5 (14:00) 7.9 (00:00) 9.2 14.17 (00:50) 6.67 (00:50) 1.4 0 0.6 0 0.8
21-04-2019 13 (15:30) 6.6 (00:00) 9.8 14.72 (08:30) 6.11 (08:40) 0.4 0.4 0 0 0
20-04-2019 14.6 (13:20) 6.2 (00:00) 10.4 12.5 (22:00) 5.28 (22:00) 9.4 0 0 0 9.4
19-04-2019 16 (14:30) 7.9 (00:00) 12 10 (11:30) 4.72 (20:50) 0 0 0 0 0
18-04-2019 14.2 (12:30) 4.8 (00:00) 9.5 8.61 (20:10) 3.89 (20:10) 0 0 0 0 0
17-04-2019 15.3 (14:30) 3.9 (00:00) 9.6 8.33 (13:20) 5 (15:00) 0 0 0 0 0
16-04-2019 13.1 (14:10) 4.4 (00:00) 8.8 5 (14:00) 2.78 (14:00) 0 0 0 0 0
15-04-2019 13.2 (14:50) 1.9 (00:00) 7.5 7.5 (13:50) 3.89 (13:20) 0 0 0 0 0
14-04-2019 15.3 (15:00) 1 (00:00) 8.2 5.83 (12:20) 3.61 (13:00) 0 0 0 0 0
13-04-2019 16.6 (14:30) 1.4 (00:00) 9 6.67 (17:20) 3.89 (13:30) 0 0 0 0 0
12-04-2019 15.1 (14:10) 3.7 (00:00) 9.4 6.11 (16:30) 3.61 (08:10) 0 0 0 0 0
11-04-2019 13.2 (13:20) 5.4 (00:00) 9.3 6.94 (13:50) 4.44 (07:00) 0 0 0 0 0
10-04-2019 12.8 (13:30) 1.2 (00:00) 7 9.17 (20:50) 4.44 (14:00) 3.4 0 0 0.4 3
09-04-2019 9.3 (14:20) 3.4 (00:00) 6.4 7.5 (16:20) 4.17 (20:30) 10.8 0 0.4 9.6 0.8
08-04-2019 15.1 (14:30) 3.2 (00:00) 9.2 8.06 (11:30) 5.28 (02:10) 0.6 0 0 0 0.6
07-04-2019 11.5 (12:30) 2.2 (00:00) 6.9 8.89 (14:50) 5.56 (14:50) 4.6 0 0 4.6 0
06-04-2019 10.9 (18:40) 2.9 (00:00) 6.9 13.33 (11:30) 7.5 (12:20) 5.6 5.6 0 0 0
05-04-2019 9.5 (12:10) -1.1 (-00:0) 4.2 11.11 (10:40) 5.83 (10:50) 4.2 0 0 0 4.2
04-04-2019 9.7 (15:40) -1.5 (-00:0) 4.1 6.67 (16:00) 3.89 (16:40) 0 0 0 0 0
03-04-2019 11.9 (12:50) 2.1 (00:00) 7 8.61 (15:40) 4.44 (13:20) 11.6 0 1 4.4 6.2
02-04-2019 14.7 (12:30) 5.5 (00:00) 10.1 8.33 (03:30) 5.28 (03:10) 20.4 0 0 0 20.4
01-04-2019 16.3 (15:00) 2.3 (00:00) 9.3 7.5 (13:50) 4.17 (17:40) 0 0 0 0 0
31-03-2019 13.1 (17:00) 0.6 (00:00) 6.9 5 (17:00) 1.94 (19:50) 0 0 0 0 0
30-03-2019 12.5 (15:00) -1.5 (-00:0) 5.5 6.94 (16:20) 4.17 (16:20) 0 0 0 0 0
29-03-2019 13.3 (13:10) 0.8 (00:00) 7.1 9.44 (13:40) 4.44 (12:10) 0 0 0 0 0
28-03-2019 15.2 (13:50) -0.7 (-00:0) 7.2 8.89 (11:20) 4.72 (11:10) 0 0 0 0 0
27-03-2019 15.6 (14:00) -2.1 (-00:0) 6.8 7.5 (08:30) 4.44 (16:40) 0 0 0 0 0

Gráficas

Temp. máximas Temp. mínimas Temp. medias Precipitaciones Rachas de viento máximas Velocidades máximas media en intervalos de 10 minutos

Datos horarios

Fecha y hora oficial Temperatura (ºC) Velocidad del viento (km/h) Dirección del viento Racha (km/h) Dirección de racha Precipitación (mm) Presión (hPa) Tendencia (hPa) Humedad (%)
2019-04-25 23:00:00 8 19 Noroeste 41 Noroeste 0 -- -- 75
2019-04-25 22:00:00 7.9 19 Noroeste 34 Oeste 0 -- -- 84
2019-04-25 21:00:00 7.5 22 Noroeste 40 Noroeste 1 -- -- 90
2019-04-25 20:00:00 10.8 17 Noroeste 37 Noroeste 0 -- -- 73
2019-04-25 19:00:00 10.5 17 Noroeste 33 Oeste 0 -- -- 79
2019-04-25 18:00:00 13 12 Oeste 31 Noroeste 0 -- -- 69
2019-04-25 17:00:00 14.8 17 Sur 33 Sudoeste 0 -- -- 58
2019-04-25 16:00:00 14.1 17 Oeste 48 Noroeste 0.2 -- -- 53
2019-04-25 15:00:00 9.9 18 Noroeste 41 Noroeste 0 -- -- 81
2019-04-25 14:00:00 9.6 23 Noroeste 45 Noroeste 0 -- -- 77
2019-04-25 13:00:00 9 21 Noroeste 50 Oeste 0.2 -- -- 83
2019-04-25 12:00:00 8.8 25 Noroeste 47 Norte 0 -- -- 89
2019-04-25 11:00:00 12.5 16 Noroeste 37 Noroeste 0 -- -- 72
2019-04-25 10:00:00 11.8 13 Sur 39 Sur 0 -- -- 74
2019-04-25 09:00:00 9.7 7 Sur 29 Sur 0 -- -- 89
2019-04-25 08:00:00 8.9 3 Este 10 Este 0 -- -- 95
2019-04-25 07:00:00 8.7 3 Este 14 Sudoeste 0 -- -- 95
2019-04-25 06:00:00 8.8 6 Sur 14 Oeste 0 -- -- 95
2019-04-25 05:00:00 8.7 4 Este 18 Sur 0 -- -- 94
2019-04-25 04:00:00 8.7 7 Sudeste 19 Sudeste 0 -- -- 92
2019-04-25 03:00:00 8.7 6 Sur 14 Sur 0 -- -- 87
2019-04-25 02:00:00 8.1 4 Este 14 Este 0 -- -- 84
2019-04-25 01:00:00 7.6 3 Norte 14 Sudoeste 0 -- -- 78
2019-04-25 00:00:00 8.5 4 Sudeste 21 Sudeste 0 -- -- 71
2019-04-24 23:00:00 9.3 8 Sur 55 Sur 0 -- -- 62
2019-04-24 22:00:00 9.1 22 Sudoeste 45 Sur 0 -- -- 61
2019-04-24 21:00:00 8.7 9 Sudoeste 22 Oeste 0 -- -- 65
2019-04-24 20:00:00 10.5 12 Sur 27 Sur 0 -- -- 64
2019-04-24 19:00:00 12.4 16 Sudoeste 29 Sudoeste 0 -- -- 48
2019-04-24 18:00:00 13.3 16 Sur 38 Oeste 0 -- -- 52
2019-04-24 17:00:00 14 17 Oeste 41 Sudoeste 0 -- -- 51
2019-04-24 16:00:00 13 19 Sur 40 Sur 0 -- -- 50
2019-04-24 15:00:00 12.1 20 Sudoeste 33 Sur 0 -- -- 55
2019-04-24 14:00:00 12.4 13 Sudoeste 31 Sudoeste 0 -- -- 52
2019-04-24 13:00:00 10.9 17 Oeste 39 Oeste 0 -- -- 56
2019-04-24 12:00:00 10.8 14 Oeste 33 Oeste 0 -- -- 57
2019-04-24 11:00:00 10.4 18 Oeste 36 Oeste 0 -- -- 61
2019-04-24 10:00:00 7.6 13 Noroeste 30 Norte 0 -- -- 73
2019-04-24 09:00:00 7.7 13 Noroeste 25 Norte 0 -- -- 74
2019-04-24 08:00:00 6.6 10 Norte 17 Noroeste 0 -- -- 82
2019-04-24 07:00:00 6.9 6 Norte 18 Noroeste 0 -- -- 82
2019-04-24 06:00:00 8 6 Noroeste 14 Sur 0 -- -- 80
2019-04-24 05:00:00 8.8 6 Sur 19 Sur 0 -- -- 79
2019-04-24 04:00:00 9.5 9 Sudoeste 23 Sudoeste 0 -- -- 76
2019-04-24 03:00:00 9.7 6 Oeste 19 Sudoeste 0 -- -- 78
2019-04-24 02:00:00 10.7 8 Sur 23 Sudoeste 0 -- -- 69
2019-04-24 01:00:00 10.9 6 Sudoeste 19 Noroeste 0 -- -- 62
2019-04-24 00:00:00 11 11 Oeste 23 Sudoeste 0 -- -- 65
2019-04-23 23:00:00 11.7 13 Sudoeste 28 Sudoeste 0 -- -- 66
2019-04-23 22:00:00 11.5 11 Sudoeste 29 Oeste 0 -- -- 64
2019-04-23 21:00:00 11.6 16 Sudoeste 38 Sudoeste 0 -- -- 69
2019-04-23 20:00:00 12.1 5 Sudeste 18 Sur 0 -- -- 81
2019-04-23 19:00:00 14.8 7 Sudeste 27 Sudeste 0 -- -- 71
2019-04-23 18:00:00 16 14 Sur 32 Oeste 0 -- -- 57
2019-04-23 17:00:00 15.1 14 Sur 30 Sudoeste 0 -- -- 65
2019-04-23 16:00:00 14.1 12 Sur 24 Sudoeste 0 -- -- 72
2019-04-23 15:00:00 14.4 11 Sur 19 Sur 0 -- -- 75
2019-04-23 14:00:00 12.2 8 Sur 15 Sur 0 -- -- 87
2019-04-23 13:00:00 11.9 3 Sur 14 Sur 0 -- -- 88
2019-04-23 12:00:00 11.2 7 Sur 14 Sur 0 -- -- 90
2019-04-23 11:00:00 12 3 Sudeste 16 Norte 0 -- -- 86
2019-04-23 10:00:00 10.3 10 Norte 18 Norte 0 -- -- 88
2019-04-23 09:00:00 9.3 4 Norte 18 Noroeste 0 -- -- 97
2019-04-23 08:00:00 8.8 5 Norte 22 Este 0 -- -- 98
2019-04-23 07:00:00 8.7 9 Norte 24 Norte 0 -- -- 98
2019-04-23 06:00:00 8.7 13 Norte 29 Norte 0.2 -- -- 98
2019-04-23 05:00:00 8.7 9 Noroeste 27 Norte 0.6 -- -- 98
2019-04-23 04:00:00 8.7 8 Norte 22 Norte 0.4 -- -- 98
2019-04-23 03:00:00 8.6 8 Norte 19 Nordeste 0.4 -- -- 98
2019-04-23 02:00:00 8.8 9 Norte 25 Nordeste 0.4 -- -- 98
2019-04-23 01:00:00 8.8 10 Nordeste 26 Nordeste 1 -- -- 98
2019-04-23 00:00:00 8.7 14 Nordeste 28 Norte 0.4 -- -- 97
2019-04-22 23:00:00 8.5 13 Norte 30 Nordeste 0.4 -- -- 96
2019-04-22 22:00:00 8.5 9 Nordeste 35 Nordeste 0 -- -- 93
2019-04-22 21:00:00 9.1 8 Nordeste 29 Nordeste 0 -- -- 84
2019-04-22 20:00:00 9.4 9 Nordeste 39 Nordeste 0 -- -- 78
2019-04-22 19:00:00 9.7 11 Norte 43 Este 0 -- -- 77
2019-04-22 18:00:00 9.8 15 Nordeste 41 Nordeste 0 -- -- 78
2019-04-22 17:00:00 9.9 9 Norte 31 Nordeste 0 -- -- 80
2019-04-22 16:00:00 10.4 9 Nordeste 38 Nordeste 0 -- -- 76
2019-04-22 15:00:00 9.7 11 Norte 32 Norte 0 -- -- 78
2019-04-22 14:00:00 10.5 11 Nordeste 36 Nordeste 0 -- -- 75
2019-04-22 13:00:00 9.5 19 Nordeste 39 Nordeste 0 -- -- 81
2019-04-22 12:00:00 9.9 8 Norte 35 Nordeste 0 -- -- 81
2019-04-22 11:00:00 10.1 12 Nordeste 36 Nordeste 0 -- -- 80
2019-04-22 10:00:00 9.7 11 Nordeste 39 Este 0.6 -- -- 81
2019-04-22 09:00:00 8.9 18 Nordeste 42 Nordeste 0 -- -- 73
2019-04-22 08:00:00 9.3 21 Nordeste 40 Nordeste 0 -- -- 68
2019-04-22 07:00:00 8.7 13 Nordeste 35 Nordeste 0 -- -- 82
2019-04-22 06:00:00 8.8 11 Norte 51 Nordeste 0 -- -- 74
2019-04-22 05:00:00 9.1 18 Nordeste 33 Norte 0 -- -- 69
2019-04-22 04:00:00 8.8 9 Norte 28 Norte 0 -- -- 76
2019-04-22 03:00:00 8.7 9 Norte 37 Nordeste 0 -- -- 74
2019-04-22 02:00:00 8.9 18 Nordeste 37 Nordeste 0 -- -- 72
2019-04-22 01:00:00 9.2 21 Nordeste 51 Nordeste 0 -- -- 69
2019-04-22 00:00:00 8.9 16 Nordeste 35 Nordeste 0 -- -- 74
2019-04-21 23:00:00 9.1 14 Nordeste 31 Norte 0 -- -- 73
2019-04-21 22:00:00 8.6 10 Norte 35 Nordeste 0 -- -- 81
2019-04-21 21:00:00 9 13 Nordeste 40 Norte 0 -- -- 81
2019-04-21 20:00:00 9.4 13 Norte 39 Nordeste 0 -- -- 80
2019-04-21 19:00:00 10.2 17 Nordeste 46 Nordeste 0 -- -- 75
2019-04-21 18:00:00 10.4 16 Nordeste 45 Nordeste 0 -- -- 72
2019-04-21 17:00:00 10.7 10 Nordeste 35 Este 0 -- -- 75
2019-04-21 16:00:00 12 12 Nordeste 40 Este 0 -- -- 68
2019-04-21 15:00:00 11.8 17 Nordeste 48 Nordeste 0 -- -- 63
2019-04-21 14:00:00 11.3 13 Nordeste 45 Nordeste 0 -- -- 66
2019-04-21 13:00:00 10 12 Nordeste 36 Nordeste 0 -- -- 70
2019-04-21 12:00:00 9.9 15 Nordeste 35 Este 0 -- -- 75
2019-04-21 11:00:00 9.5 10 Nordeste 41 Nordeste 0 -- -- 82
2019-04-21 10:00:00 8.9 12 Nordeste 40 Este 0 -- -- 81
2019-04-21 09:00:00 8.9 17 Norte 53 Nordeste 0 -- -- 72
2019-04-21 08:00:00 8.4 16 Nordeste 41 Nordeste 0 -- -- 71
2019-04-21 07:00:00 7.9 14 Norte 32 Norte 0 -- -- 80
2019-04-21 06:00:00 7.6 13 Norte 36 Nordeste 0.2 -- -- 83
2019-04-21 05:00:00 7.7 14 Norte 36 Norte 0 -- -- 82
2019-04-21 04:00:00 7.6 12 Norte 39 Nordeste 0.2 -- -- 83
2019-04-21 03:00:00 7.8 14 Norte 35 Nordeste 0 -- -- 79
2019-04-21 02:00:00 7.5 13 Norte 37 Nordeste 0 -- -- 81
2019-04-21 01:00:00 7.1 17 Norte 52 Nordeste 0 -- -- 85
2019-04-21 00:00:00 6.6 14 Norte 35 Noroeste 0 -- -- 88
2019-04-20 23:00:00 6.3 16 Norte 36 Nordeste 0.4 -- -- 92
2019-04-20 22:00:00 6.3 19 Norte 45 Noroeste 3.8 -- -- 95
2019-04-20 21:00:00 6.5 9 Norte 19 Nordeste 3.4 -- -- 94
2019-04-20 20:00:00 7 8 Norte 32 Nordeste 1.8 -- -- 89
2019-04-20 19:00:00 9.7 10 Norte 28 Nordeste 0 -- -- 64
2019-04-20 18:00:00 10.2 9 Norte 28 Nordeste 0 -- -- 66
2019-04-20 17:00:00 11.1 8 Nordeste 29 Este 0 -- -- 67
2019-04-20 16:00:00 12.3 6 Norte 23 Nordeste 0 -- -- 57
2019-04-20 15:00:00 13.2 9 Nordeste 29 Norte 0 -- -- 53
2019-04-20 14:00:00 13.8 8 Nordeste 33 Nordeste 0 -- -- 55
2019-04-20 13:00:00 13.4 10 Nordeste 31 Nordeste 0 -- -- 55
2019-04-20 12:00:00 12.8 10 Nordeste 39 Nordeste 0 -- -- 56
2019-04-20 11:00:00 12 8 Norte 33 Norte 0 -- -- 58
2019-04-20 10:00:00 11.4 10 Nordeste 28 Nordeste 0 -- -- 61
2019-04-20 09:00:00 9.9 10 Norte 28 Nordeste 0 -- -- 66
2019-04-20 08:00:00 9.4 11 Norte 26 Norte 0 -- -- 63
2019-04-20 07:00:00 9.2 9 Norte 26 Este 0 -- -- 59
2019-04-20 06:00:00 9.1 7 Norte 19 Norte 0 -- -- 59
2019-04-20 05:00:00 9.1 5 Norte 19 Nordeste 0 -- -- 60
2019-04-20 04:00:00 9.2 4 Norte 18 Nordeste 0 -- -- 59
2019-04-20 03:00:00 9.5 9 Norte 26 Nordeste 0 -- -- 59
2019-04-20 02:00:00 9.2 7 Norte 31 Este 0 -- -- 60
2019-04-20 01:00:00 9 9 Norte 26 Este 0 -- -- 63
2019-04-20 00:00:00 8.8 7 Norte 23 Nordeste 0 -- -- 66
2019-04-19 23:00:00 9.4 10 Nordeste 31 Nordeste 0 -- -- 64
2019-04-19 22:00:00 9.7 11 Nordeste 33 Este 0 -- -- 64
2019-04-19 21:00:00 10 15 Nordeste 36 Norte 0 -- -- 59
2019-04-19 20:00:00 10.5 16 Norte 34 Nordeste 0 -- -- 62
2019-04-19 19:00:00 12.5 9 Nordeste 29 Este 0 -- -- 59
2019-04-19 18:00:00 13.8 12 Nordeste 32 Nordeste 0 -- -- 50
2019-04-19 17:00:00 15.4 8 Nordeste 33 Norte 0 -- -- 42
2019-04-19 16:00:00 14.9 7 Norte 33 Nordeste 0 -- -- 43
2019-04-19 15:00:00 15.2 15 Nordeste 33 Nordeste 0 -- -- 53
2019-04-19 14:00:00 15.5 7 Norte 29 Sudeste 0 -- -- 51
2019-04-19 13:00:00 14.9 9 Norte 28 Nordeste 0 -- -- 52
2019-04-19 12:00:00 12.7 9 Nordeste 36 Este 0 -- -- 58
2019-04-19 11:00:00 10.3 10 Nordeste 26 Nordeste 0 -- -- 76
2019-04-19 10:00:00 9.4 8 Norte 27 Nordeste 0 -- -- 81
2019-04-19 09:00:00 8.8 8 Nordeste 32 Nordeste 0 -- -- 80
2019-04-19 08:00:00 8.3 9 Norte 22 Nordeste 0 -- -- 80
2019-04-19 07:00:00 8.5 8 Nordeste 30 Norte 0 -- -- 74
2019-04-19 06:00:00 8.9 5 Norte 22 Nordeste 0 -- -- 71
2019-04-19 05:00:00 9 4 Norte 18 Nordeste 0 -- -- 72
2019-04-19 04:00:00 9.1 7 Norte 19 Norte 0 -- -- 71
2019-04-19 03:00:00 9.1 5 Oeste 13 Sudoeste 0 -- -- 74
2019-04-19 02:00:00 8.6 7 Oeste 16 Este 0 -- -- 76
2019-04-19 01:00:00 8.3 5 Norte 14 Sur 0 -- -- 80
2019-04-19 00:00:00 7.9 4 Norte 22 Nordeste 0 -- -- 76
2019-04-18 23:00:00 8.6 4 Norte 21 Nordeste 0 -- -- 70
2019-04-18 22:00:00 8.8 7 Norte 25 Nordeste 0 -- -- 69
2019-04-18 21:00:00 8.8 10 Norte 31 Nordeste 0 -- -- 78
2019-04-18 20:00:00 9.9 12 Nordeste 22 Nordeste 0 -- -- 69
2019-04-18 19:00:00 11.6 7 Nordeste 18 Este 0 -- -- 63
2019-04-18 18:00:00 13 4 Nordeste 23 Nordeste 0 -- -- 57
2019-04-18 17:00:00 13.2 6 Nordeste 26 Nordeste 0 -- -- 61
2019-04-18 16:00:00 14.1 6 Nordeste 26 Nordeste 0 -- -- 63
2019-04-18 15:00:00 13.7 5 Nordeste 17 Este 0 -- -- 64
2019-04-18 14:00:00 13 4 Este 19 Este 0 -- -- 65
2019-04-18 13:00:00 13.6 5 Sudeste 15 Este 0 -- -- 63
2019-04-18 12:00:00 13.3 5 Nordeste 16 Norte 0 -- -- 58
2019-04-18 11:00:00 10.9 3 Sudeste 11 Sur 0 -- -- 69
2019-04-18 10:00:00 9.5 4 Nordeste 11 Nordeste 0 -- -- 77
2019-04-18 09:00:00 7.2 3 Noroeste 6 Norte 0 -- -- 99
2019-04-18 08:00:00 5.8 4 Noroeste 7 Norte 0 -- -- 99
2019-04-18 07:00:00 4.8 2 Noroeste 5 Nordeste 0 -- -- 98
2019-04-18 06:00:00 5.2 2 Noroeste 5 Noroeste 0 -- -- 97
2019-04-18 05:00:00 5.8 2 Noroeste 5 Oeste 0 -- -- 97
2019-04-18 04:00:00 5.7 2 Noroeste 6 Norte 0 -- -- 97
2019-04-18 03:00:00 6.1 0 Calma 3 Noroeste 0 -- -- 96
2019-04-18 02:00:00 6.4 2 Noroeste 7 Norte 0 -- -- 95
2019-04-18 01:00:00 7.2 3 Norte 5 Sudeste 0 -- -- 93
2019-04-18 00:00:00 7.9 2 Sudeste 7 Sur 0 -- -- 94
2019-04-17 23:00:00 8.2 2 Este 7 Sur 0 -- -- 96
2019-04-17 22:00:00 8.4 3 Sur 8 Sur 0 -- -- 94
2019-04-17 21:00:00 9.2 5 Sur 9 Sudoeste 0 -- -- 89
2019-04-17 20:00:00 10.4 6 Sudoeste 14 Sur 0 -- -- 82
2019-04-17 19:00:00 12.9 6 Sur 19 Sur 0 -- -- 72
2019-04-17 18:00:00 14.1 10 Sur 19 Sur 0 -- -- 70
2019-04-17 17:00:00 13.2 12 Sur 22 Sur 0 -- -- 72
2019-04-17 16:00:00 13.1 13 Sur 26 Sur 0 -- -- 72
2019-04-17 15:00:00 14.7 18 Sur 27 Sur 0 -- -- 66
2019-04-17 14:00:00 14.9 14 Sur 30 Sur 0 -- -- 66
2019-04-17 13:00:00 13.4 15 Sur 26 Sur 0 -- -- 75
2019-04-17 12:00:00 12.5 8 Sur 18 Sur 0 -- -- 77
2019-04-17 11:00:00 11.4 6 Sudeste 13 Sudeste 0 -- -- 81
2019-04-17 10:00:00 10.3 5 Sur 13 Norte 0 -- -- 77
2019-04-17 09:00:00 7.9 5 Oeste 11 Oeste 0 -- -- 84
2019-04-17 08:00:00 5.8 0 Calma 18 Norte 0 -- -- 95
2019-04-17 07:00:00 5.9 12 Norte 21 Noroeste 0 -- -- 98
2019-04-17 06:00:00 6.1 9 Noroeste 20 Noroeste 0 -- -- 98
2019-04-17 05:00:00 6.4 7 Noroeste 17 Oeste 0 -- -- 99
2019-04-17 04:00:00 3.9 4 Noroeste 5 Noroeste 0 -- -- 97
2019-04-17 03:00:00 4.5 0 Calma 4 Nordeste 0 -- -- 96
2019-04-17 02:00:00 6 0 Calma 5 Norte 0 -- -- 95
2019-04-17 01:00:00 7.1 2 Norte 5 Noroeste 0 -- -- 95
2019-04-17 00:00:00 8.4 2 Sur 6 Sudoeste 0 -- -- 97
2019-04-16 23:00:00 8.7 2 Este 6 Este 0 -- -- 97
2019-04-16 22:00:00 9 3 Sur 6 Sudeste 0 -- -- 96
2019-04-16 21:00:00 9.1 2 Sudeste 8 Sudeste 0 -- -- 94
2019-04-16 20:00:00 9.4 0 Calma 7 Sur 0 -- -- 93
2019-04-16 19:00:00 9.8 3 Este 11 Este 0 -- -- 92
2019-04-16 18:00:00 10.6 4 Este 14 Sudoeste 0 -- -- 86
2019-04-16 17:00:00 12.5 4 Este 14 Sur 0 -- -- 77
2019-04-16 16:00:00 12 5 Sur 10 Sur 0 -- -- 72
2019-04-16 15:00:00 11.6 4 Este 17 Sur 0 -- -- 77
2019-04-16 14:00:00 12.1 10 Sur 18 Sur 0 -- -- 73
2019-04-16 13:00:00 10.9 6 Sur 17 Sur 0 -- -- 75
2019-04-16 12:00:00 10.8 8 Sur 14 Sur 0 -- -- 72
2019-04-16 11:00:00 10.2 6 Sur 10 Sur 0 -- -- 70
2019-04-16 10:00:00 9.5 3 Sudeste 6 Sur 0 -- -- 66
2019-04-16 09:00:00 7.3 2 Noroeste 4 Noroeste 0 -- -- 85
2019-04-16 08:00:00 5.8 0 Calma 4 Norte 0 -- -- 90
2019-04-16 07:00:00 5.2 0 Calma 6 Noroeste 0 -- -- 86
2019-04-16 06:00:00 4.9 0 Calma 6 Norte 0 -- -- 89
2019-04-16 05:00:00 4.8 3 Norte 6 Norte 0 -- -- 89
2019-04-16 04:00:00 5 3 Norte 7 Nordeste 0 -- -- 87
2019-04-16 03:00:00 5.7 5 Norte 15 Noroeste 0 -- -- 83
2019-04-16 02:00:00 7 8 Noroeste 16 Norte 0 -- -- 65
2019-04-16 01:00:00 4.7 2 Norte 5 Nordeste 0 -- -- 81
2019-04-16 00:00:00 5 0 Calma 5 Noroeste 0 -- -- 77
2019-04-15 23:00:00 6.2 2 Noroeste 3 Norte 0 -- -- 77
2019-04-15 22:00:00 7.3 0 Calma 6 Sur 0 -- -- 70
2019-04-15 21:00:00 8.2 2 Oeste 9 Sur 0 -- -- 65
2019-04-15 20:00:00 9.4 5 Sur 15 Sudeste 0 -- -- 61
2019-04-15 19:00:00 9.9 6 Sudeste 23 Sur 0 -- -- 60
2019-04-15 18:00:00 11.4 10 Sudeste 22 Sur 0 -- -- 64
2019-04-15 17:00:00 12 11 Sur 18 Sur 0 -- -- 67
2019-04-15 16:00:00 11.8 10 Sudeste 21 Sur 0 -- -- 66
2019-04-15 15:00:00 12.7 14 Sur 25 Sur 0 -- -- 63
2019-04-15 14:00:00 12.5 13 Sur 27 Sur 0 -- -- 64
2019-04-15 13:00:00 12.7 11 Sur 18 Sur 0 -- -- 60
2019-04-15 12:00:00 11 12 Sur 18 Sur 0 -- -- 64
2019-04-15 11:00:00 10.1 6 Sur 12 Sur 0 -- -- 67
2019-04-15 10:00:00 7.7 6 Sur 11 Sur 0 -- -- 73
2019-04-15 09:00:00 4.6 0 Calma 4 Noroeste 0 -- -- 87
2019-04-15 08:00:00 3.5 0 Calma 5 Sudeste 0 -- -- 86
2019-04-15 07:00:00 2.3 0 Calma 6 Norte 0 -- -- 90
2019-04-15 06:00:00 2.3 3 Noroeste 6 Noroeste 0 -- -- 88
2019-04-15 05:00:00 2.7 2 Norte 6 Este 0 -- -- 88
2019-04-15 04:00:00 2.5 3 Norte 6 Norte 0 -- -- 92
2019-04-15 03:00:00 3.1 3 Norte 5 Norte 0 -- -- 91
2019-04-15 02:00:00 3.8 2 Norte 4 Noroeste 0 -- -- 92
2019-04-15 01:00:00 4.5 0 Calma 4 Nordeste 0 -- -- 91
2019-04-15 00:00:00 5.3 0 Calma 4 Nordeste 0 -- -- 89
2019-04-14 23:00:00 5.8 0 Calma 4 Nordeste 0 -- -- 86
2019-04-14 22:00:00 6.6 2 Noroeste 4 Norte 0 -- -- 80
2019-04-14 21:00:00 8.9 2 Noroeste 8 Sur 0 -- -- 70
2019-04-14 20:00:00 11.2 6 Sur 16 Sudoeste 0 -- -- 59
2019-04-14 19:00:00 13.2 11 Sur 19 Sudoeste 0 -- -- 54
2019-04-14 18:00:00 13.4 11 Sur 19 Sur 0 -- -- 57
2019-04-14 17:00:00 13.9 13 Sur 21 Sur 0 -- -- 58
2019-04-14 16:00:00 14.5 8 Sur 20 Sur 0 -- -- 61
2019-04-14 15:00:00 15.3 5 Sudeste 19 Sur 0 -- -- 61
2019-04-14 14:00:00 14 8 Sur 18 Sur 0 -- -- 58
2019-04-14 13:00:00 13.1 13 Sur 21 Sur 0 -- -- 51
2019-04-14 12:00:00 13.1 9 Sur 18 Sur 0 -- -- 52
2019-04-14 11:00:00 11.5 8 Sur 13 Sur 0 -- -- 46
2019-04-14 10:00:00 8.4 4 Sur 8 Sur 0 -- -- 63
2019-04-14 09:00:00 5.7 0 Calma 4 Nordeste 0 -- -- 80
2019-04-14 08:00:00 2.6 2 Norte 4 Noroeste 0 -- -- 85
2019-04-14 07:00:00 1.3 3 Norte 6 Noroeste 0 -- -- 89
2019-04-14 06:00:00 2 2 Noroeste 5 Noroeste 0 -- -- 87
2019-04-14 05:00:00 2.7 3 Norte 5 Nordeste 0 -- -- 85
2019-04-14 04:00:00 3.5 3 Noroeste 4 Noroeste 0 -- -- 84
2019-04-14 03:00:00 3.8 2 Norte 4 Noroeste 0 -- -- 81
2019-04-14 02:00:00 4.6 0 Calma 3 Noroeste 0 -- -- 81
2019-04-14 01:00:00 4.6 2 Norte 3 Norte 0 -- -- 84
2019-04-14 00:00:00 5.5 2 Nordeste 4 Noroeste 0 -- -- 87
2019-04-13 23:00:00 6.4 3 Noroeste 5 Norte 0 -- -- 91
2019-04-13 22:00:00 7.7 3 Norte 4 Noroeste 0 -- -- 88
2019-04-13 21:00:00 9.9 2 Norte 6 Sur 0 -- -- 80
2019-04-13 20:00:00 12.8 4 Sur 12 Sur 0 -- -- 67
2019-04-13 19:00:00 14 5 Sur 12 Sur 0 -- -- 69
2019-04-13 18:00:00 13.7 4 Sudeste 24 Sur 0 -- -- 65
2019-04-13 17:00:00 15.2 12 Sur 22 Sur 0 -- -- 61
2019-04-13 16:00:00 15.1 5 Sudeste 21 Sudeste 0 -- -- 64
2019-04-13 15:00:00 16.2 6 Sudeste 19 Sudeste 0 -- -- 54
2019-04-13 14:00:00 16.1 6 Sudeste 21 Sur 0 -- -- 48
2019-04-13 13:00:00 14.4 12 Sur 20 Sur 0 -- -- 48
2019-04-13 12:00:00 13.6 9 Sur 18 Sur 0 -- -- 49
2019-04-13 11:00:00 12.5 8 Sur 14 Sur 0 -- -- 50
2019-04-13 10:00:00 9.3 4 Noroeste 10 Oeste 0 -- -- 51
2019-04-13 09:00:00 6.1 4 Norte 10 Noroeste 0 -- -- 69
2019-04-13 08:00:00 1.5 3 Oeste 11 Norte 0 -- -- 86
2019-04-13 07:00:00 3.2 0 Calma 9 Noroeste 0 -- -- 85
2019-04-13 06:00:00 2.9 4 Norte 13 Norte 0 -- -- 91
2019-04-13 05:00:00 5.1 7 Norte 16 Noroeste 0 -- -- 86
2019-04-13 04:00:00 4.9 9 Noroeste 13 Noroeste 0 -- -- 95
2019-04-13 03:00:00 3.4 5 Noroeste 8 Noroeste 0 -- -- 97
2019-04-13 02:00:00 2.5 2 Norte 4 Noroeste 0 -- -- 94
2019-04-13 01:00:00 3 3 Norte 5 Noroeste 0 -- -- 92
2019-04-13 00:00:00 3.8 0 Calma 3 Norte 0 -- -- 90
2019-04-12 23:00:00 4.4 3 Norte 4 Norte 0 -- -- 90
2019-04-12 22:00:00 5.6 2 Norte 4 Noroeste 0 -- -- 88
2019-04-12 21:00:00 7.6 0 Calma 4 Norte 0 -- -- 83
2019-04-12 20:00:00 9.9 2 Sudeste 21 Oeste 0 -- -- 76
2019-04-12 19:00:00 10.4 4 Sur 12 Sur 0 -- -- 74
2019-04-12 18:00:00 10.6 9 Sur 21 Sur 0 -- -- 76
2019-04-12 17:00:00 13.5 13 Sur 22 Sur 0 -- -- 64
2019-04-12 16:00:00 13.8 5 Sudeste 19 Sudeste 0 -- -- 62
2019-04-12 15:00:00 13.4 5 Este 17 Sudeste 0 -- -- 62
2019-04-12 14:00:00 14.3 7 Este 18 Sur 0 -- -- 59
2019-04-12 13:00:00 14.3 6 Sudeste 18 Sudoeste 0 -- -- 54
2019-04-12 12:00:00 13.5 7 Sur 17 Sur 0 -- -- 52
2019-04-12 11:00:00 12.5 5 Sur 12 Nordeste 0 -- -- 51
2019-04-12 10:00:00 9.7 5 Sur 10 Noroeste 0 -- -- 51
2019-04-12 09:00:00 7.4 6 Norte 20 Norte 0 -- -- 59
2019-04-12 08:00:00 6 9 Norte 15 Norte 0 -- -- 66
2019-04-12 07:00:00 5.4 6 Norte 13 Noroeste 0 -- -- 68
2019-04-12 06:00:00 3.9 3 Norte 8 Noroeste 0 -- -- 83
2019-04-12 05:00:00 5.4 3 Norte 13 Norte 0 -- -- 77
2019-04-12 04:00:00 6.5 7 Nordeste 17 Noroeste 0 -- -- 72
2019-04-12 03:00:00 7.6 13 Norte 17 Noroeste 0 -- -- 67
2019-04-12 02:00:00 7.1 5 Norte 8 Norte 0 -- -- 71
2019-04-12 01:00:00 7 4 Norte 8 Norte 0 -- -- 78
2019-04-12 00:00:00 7.2 4 Noroeste 10 Noroeste 0 -- -- 75
2019-04-11 23:00:00 7.7 3 Noroeste 9 Norte 0 -- -- 74
2019-04-11 22:00:00 8.1 3 Nordeste 6 Norte 0 -- -- 68
2019-04-11 21:00:00 8.5 2 Este 8 Sur 0 -- -- 75
2019-04-11 20:00:00 9.3 3 Sudeste 6 Sur 0 -- -- 71
2019-04-11 19:00:00 9.7 4 Sur 12 Sur 0 -- -- 66
2019-04-11 18:00:00 9.9 7 Sudoeste 10 Sudoeste 0 -- -- 64
2019-04-11 17:00:00 10.5 3 Este 10 Este 0 -- -- 67
2019-04-11 16:00:00 11.6 5 Nordeste 21 Norte 0 -- -- 58
2019-04-11 15:00:00 12.9 6 Nordeste 24 Oeste 0 -- -- 43
2019-04-11 14:00:00 12.1 13 Norte 25 Noroeste 0 -- -- 44
2019-04-11 13:00:00 12.1 4 Sur 18 Sudoeste 0 -- -- 48
2019-04-11 12:00:00 11.4 4 Este 11 Sudeste 0 -- -- 58
2019-04-11 11:00:00 12.2 4 Sur 10 Sur 0 -- -- 47
2019-04-11 10:00:00 9.4 3 Noroeste 13 Noroeste 0 -- -- 50
2019-04-11 09:00:00 7.2 9 Norte 18 Noroeste 0 -- -- 60
2019-04-11 08:00:00 5.8 7 Norte 21 Norte 0 -- -- 65
2019-04-11 07:00:00 6.3 16 Norte 24 Noroeste 0 -- -- 64
2019-04-11 06:00:00 6 13 Norte 22 Norte 0 -- -- 69
2019-04-11 05:00:00 6.4 12 Norte 23 Noroeste 0 -- -- 71
2019-04-11 04:00:00 5.9 10 Noroeste 17 Norte 0 -- -- 76
2019-04-11 03:00:00 5.8 6 Norte 16 Norte 0 -- -- 80
2019-04-11 02:00:00 6.4 9 Norte 15 Norte 0 -- -- 79
2019-04-11 01:00:00 5.6 8 Norte 15 Norte 0 -- -- 89
2019-04-11 00:00:00 5.4 5 Norte 17 Norte 0 -- -- 91
2019-04-10 23:00:00 4.9 10 Norte 17 Norte 0 -- -- 94
2019-04-10 22:00:00 5.3 0 Calma 17 Nordeste 0.2 -- -- 92
2019-04-10 21:00:00 6.9 7 Norte 33 Nordeste 2.8 -- -- 85
2019-04-10 20:00:00 10.5 6 Norte 14 Noroeste 0 -- -- 58
2019-04-10 19:00:00 10.9 8 Sur 13 Sudoeste 0 -- -- 69
2019-04-10 18:00:00 11.9 9 Sur 17 Sudoeste 0 -- -- 58
2019-04-10 17:00:00 10 2 Noroeste 24 Noroeste 0 -- -- 63
2019-04-10 16:00:00 8.6 15 Noroeste 29 Oeste 0.4 -- -- 73
2019-04-10 15:00:00 9.9 3 Sudoeste 27 Norte 0 -- -- 65
2019-04-10 14:00:00 10.3 16 Noroeste 29 Norte 0 -- -- 51
2019-04-10 13:00:00 12 6 Norte 22 Norte 0 -- -- 49
2019-04-10 12:00:00 11.1 12 Noroeste 23 Noroeste 0 -- -- 54
2019-04-10 11:00:00 10.9 12 Norte 21 Noroeste 0 -- -- 49
2019-04-10 10:00:00 8.1 12 Norte 24 Norte 0 -- -- 62
2019-04-10 09:00:00 6.3 9 Norte 14 Norte 0 -- -- 73
2019-04-10 08:00:00 2.6 6 Norte 15 Norte 0 -- -- 93
2019-04-10 07:00:00 1.3 4 Norte 8 Noroeste 0 -- -- 95
2019-04-10 06:00:00 2.7 4 Norte 13 Norte 0 -- -- 93
2019-04-10 05:00:00 3 6 Norte 12 Noroeste 0 -- -- 93
2019-04-10 04:00:00 3.1 5 Norte 11 Norte 0 -- -- 91
2019-04-10 03:00:00 5.2 8 Norte 13 Norte 0 -- -- 82
2019-04-10 02:00:00 3.7 5 Norte 15 Norte 0 -- -- 91
2019-04-10 01:00:00 5.8 10 Norte 17 Norte 0 -- -- 79
2019-04-10 00:00:00 6.3 11 Norte 22 Noroeste 0 -- -- 79
2019-04-09 23:00:00 5.8 12 Noroeste 26 Noroeste 0 -- -- 82
2019-04-09 22:00:00 5.2 13 Noroeste 22 Noroeste 0 -- -- 86
2019-04-09 21:00:00 5.1 14 Noroeste 23 Norte 0 -- -- 87
2019-04-09 20:00:00 4.7 9 Noroeste 20 Oeste 0 -- -- 97
2019-04-09 19:00:00 4.7 5 Sur 14 Sudoeste 0.8 -- -- 96
2019-04-09 18:00:00 4.2 2 Noroeste 17 Noroeste 3.2 -- -- 96
2019-04-09 17:00:00 4.4 9 Norte 27 Noroeste 3.8 -- -- 96
2019-04-09 16:00:00 7.2 0 Calma 18 Sur 0.2 -- -- 93
2019-04-09 15:00:00 8.3 6 Sudeste 15 Sur 0 -- -- 89
2019-04-09 14:00:00 8.7 3 Sudeste 17 Sur 0.4 -- -- 90
2019-04-09 13:00:00 7.6 3 Sudoeste 9 Sur 2 -- -- 89
2019-04-09 12:00:00 7.2 3 Sudeste 13 Sudeste 0.4 -- -- 85
2019-04-09 11:00:00 8.6 5 Sur 10 Sur 0 -- -- 84
2019-04-09 10:00:00 7.4 4 Sudeste 10 Este 0 -- -- 90
2019-04-09 09:00:00 4.8 2 Norte 4 Noroeste 0 -- -- 96
2019-04-09 08:00:00 4.9 2 Este 8 Norte 0 -- -- 97
2019-04-09 07:00:00 4.4 5 Norte 8 Norte 0 -- -- 98
2019-04-09 06:00:00 3.8 0 Calma 6 Noroeste 0 -- -- 97
2019-04-09 05:00:00 3.7 2 Norte 5 Noroeste 0 -- -- 96
2019-04-09 04:00:00 4.5 2 Norte 5 Norte 0 -- -- 95
2019-04-09 03:00:00 5.1 3 Noroeste 5 Noroeste 0 -- -- 93
2019-04-09 02:00:00 6.2 0 Calma 5 Noroeste 0 -- -- 91
2019-04-09 01:00:00 6.5 3 Norte 5 Norte 0 -- -- 90
2019-04-09 00:00:00 7.1 4 Norte 10 Oeste 0 -- -- 85
2019-04-08 23:00:00 7.6 5 Norte 20 Nordeste 0 -- -- 82
2019-04-08 22:00:00 7.6 2 Noroeste 7 Este 0 -- -- 87
2019-04-08 21:00:00 8.5 2 Sudeste 7 Este 0 -- -- 83
2019-04-08 20:00:00 9.3 3 Este 9 Este 0.6 -- -- 85
2019-04-08 19:00:00 11.5 3 Sudeste 10 Sur 0 -- -- 69
2019-04-08 18:00:00 12.5 3 Este 11 Sur 0 -- -- 63
2019-04-08 17:00:00 13.6 4 Sudeste 15 Este 0 -- -- 58
2019-04-08 16:00:00 13.3 5 Sudeste 18 Sudeste 0 -- -- 59
2019-04-08 15:00:00 14.2 5 Sur 17 Sur 0 -- -- 48
2019-04-08 14:00:00 14.3 11 Norte 24 Norte 0 -- -- 43
2019-04-08 13:00:00 13.5 10 Noroeste 23 Noroeste 0 -- -- 42
2019-04-08 12:00:00 12.2 8 Oeste 29 Noroeste 0 -- -- 53
2019-04-08 11:00:00 10.1 14 Oeste 27 Oeste 0 -- -- 57
2019-04-08 10:00:00 9 7 Oeste 26 Oeste 0 -- -- 58
2019-04-08 09:00:00 7 9 Oeste 19 Oeste 0 -- -- 66
2019-04-08 08:00:00 5.9 6 Sudoeste 17 Oeste 0 -- -- 71
2019-04-08 07:00:00 5.6 9 Oeste 28 Noroeste 0 -- -- 71
2019-04-08 06:00:00 5.3 13 Noroeste 26 Oeste 0 -- -- 76
2019-04-08 05:00:00 4.9 13 Noroeste 23 Noroeste 0 -- -- 79
2019-04-08 04:00:00 3.5 9 Noroeste 14 Noroeste 0 -- -- 86
2019-04-08 03:00:00 4.9 8 Norte 26 Noroeste 0 -- -- 79
2019-04-08 02:00:00 5.1 18 Noroeste 25 Noroeste 0 -- -- 78
2019-04-08 01:00:00 5.1 17 Noroeste 27 Noroeste 0 -- -- 79
2019-04-08 00:00:00 4.8 16 Noroeste 23 Norte 0 -- -- 82
2019-04-07 23:00:00 4.9 14 Noroeste 23 Noroeste 0 -- -- 83
2019-04-07 22:00:00 5.1 13 Noroeste 23 Norte 0 -- -- 84
2019-04-07 21:00:00 5.6 9 Noroeste 17 Noroeste 0 -- -- 82
2019-04-07 20:00:00 7.7 2 Noroeste 9 Oeste 0 -- -- 79
2019-04-07 19:00:00 8.6 5 Sudoeste 9 Sur 0 -- -- 71
2019-04-07 18:00:00 7.8 2 Oeste 6 Norte 0 -- -- 78
2019-04-07 17:00:00 5.7 6 Noroeste 9 Noroeste 0 -- -- 93
2019-04-07 16:00:00 4.8 8 Sur 17 Sudoeste 0.6 -- -- 87
2019-04-07 15:00:00 3.9 10 Noroeste 32 Noroeste 4 -- -- 88
2019-04-07 14:00:00 9.6 5 Nordeste 21 Sudeste 0 -- -- 61
2019-04-07 13:00:00 9.8 6 Norte 15 Noroeste 0 -- -- 52
2019-04-07 12:00:00 10.9 6 Sudeste 17 Sur 0 -- -- 53
2019-04-07 11:00:00 9.1 6 Sudeste 12 Este 0 -- -- 65
2019-04-07 10:00:00 6.3 4 Noroeste 15 Noroeste 0 -- -- 68
2019-04-07 09:00:00 4.2 9 Norte 17 Noroeste 0 -- -- 78
2019-04-07 08:00:00 2.7 9 Noroeste 20 Norte 0 -- -- 83
2019-04-07 07:00:00 3.1 12 Norte 18 Noroeste 0 -- -- 80
2019-04-07 06:00:00 3 9 Norte 19 Noroeste 0 -- -- 81
2019-04-07 05:00:00 2.8 11 Noroeste 17 Norte 0 -- -- 81
2019-04-07 04:00:00 3.5 10 Norte 16 Noroeste 0 -- -- 78
2019-04-07 03:00:00 2.7 8 Noroeste 17 Oeste 0 -- -- 81
2019-04-07 02:00:00 4.1 9 Oeste 18 Oeste 0 -- -- 71
2019-04-07 01:00:00 2.6 6 Noroeste 18 Noroeste 0 -- -- 75
2019-04-07 00:00:00 2.9 2 Oeste 11 Noroeste 0 -- -- 75
2019-04-06 23:00:00 4.1 5 Noroeste 15 Noroeste 0 -- -- 73
2019-04-06 22:00:00 5.7 6 Sudoeste 18 Oeste 0 -- -- 73
2019-04-06 21:00:00 6.4 8 Sudoeste 21 Sudoeste 0 -- -- 70
2019-04-06 20:00:00 8.2 9 Sudoeste 23 Noroeste 0 -- -- 58
2019-04-06 19:00:00 10.3 13 Oeste 28 Oeste 0 -- -- 45
2019-04-06 18:00:00 10.4 13 Oeste 32 Noroeste 0 -- -- 47
2019-04-06 17:00:00 9.3 16 Oeste 35 Sudoeste 0 -- -- 57
2019-04-06 16:00:00 10.8 16 Oeste 36 Oeste 0 -- -- 53
2019-04-06 15:00:00 9.8 15 Oeste 41 Oeste 0 -- -- 60
2019-04-06 14:00:00 9 18 Noroeste 46 Oeste 0 -- -- 69
2019-04-06 13:00:00 7.1 26 Noroeste 48 Oeste 0 -- -- 72
2019-04-06 12:00:00 6.5 20 Noroeste 48 Oeste 0 -- -- 77
2019-04-06 11:00:00 5.2 22 Noroeste 44 Noroeste 0 -- -- 83
2019-04-06 10:00:00 3.9 20 Noroeste 36 Noroeste 0 -- -- 90
2019-04-06 09:00:00 3.5 19 Noroeste 32 Noroeste 0 -- -- 93
2019-04-06 08:00:00 3 11 Noroeste 27 Noroeste 0 -- -- 95
2019-04-06 07:00:00 3.1 17 Noroeste 34 Noroeste 0 -- -- 94
2019-04-06 06:00:00 4.2 10 Noroeste 26 Noroeste 0.2 -- -- 92
2019-04-06 05:00:00 4.8 13 Oeste 26 Noroeste 0 -- -- 92
2019-04-06 04:00:00 5.3 14 Oeste 32 Sudoeste 0 -- -- 91
2019-04-06 03:00:00 5.8 10 Oeste 19 Oeste 0.6 -- -- 97
2019-04-06 02:00:00 6.3 8 Sur 30 Sur 4.2 -- -- 98
2019-04-06 01:00:00 6.5 4 Sudeste 29 Sur 0.6 -- -- 98
2019-04-06 00:00:00 6.2 5 Sudeste 14 Sur 0 -- -- 98
2019-04-05 23:00:00 6 6 Sudeste 24 Sur 2.2 -- -- 97
2019-04-05 22:00:00 6.5 5 Sudeste 18 Sudeste 1.6 -- -- 97
2019-04-05 21:00:00 6.9 8 Sudeste 24 Sur 0.2 -- -- 96
2019-04-05 20:00:00 6.9 13 Sur 28 Sur 0.2 -- -- 94
2019-04-05 19:00:00 7 13 Sur 30 Sur 0 -- -- 91
2019-04-05 18:00:00 7.7 13 Sur 24 Sur 0 -- -- 94
2019-04-05 17:00:00 8 14 Sur 24 Sur 0 -- -- 85
2019-04-05 16:00:00 7.4 12 Sur 25 Sudoeste 0 -- -- 93
2019-04-05 15:00:00 7.8 17 Sur 27 Sur 0 -- -- 89
2019-04-05 14:00:00 8.4 15 Sur 29 Sudoeste 0 -- -- 81
2019-04-05 13:00:00 8 14 Sur 27 Sur 0 -- -- 86
2019-04-05 12:00:00 9.1 19 Sudoeste 33 Sudoeste 0 -- -- 70
2019-04-05 11:00:00 8.9 19 Oeste 40 Sudoeste 0 -- -- 68
2019-04-05 10:00:00 6.3 6 Noroeste 23 Noroeste 0 -- -- 73
2019-04-05 09:00:00 3.9 6 Norte 17 Norte 0 -- -- 80
2019-04-05 08:00:00 3.2 7 Norte 16 Norte 0 -- -- 67
2019-04-05 07:00:00 2.6 5 Noroeste 16 Oeste 0 -- -- 66
2019-04-05 06:00:00 2.1 5 Noroeste 18 Oeste 0 -- -- 67
2019-04-05 05:00:00 2.8 5 Noroeste 15 Oeste 0 -- -- 63
2019-04-05 04:00:00 2 8 Noroeste 15 Noroeste 0 -- -- 69
2019-04-05 03:00:00 1.7 6 Oeste 16 Oeste 0 -- -- 72
2019-04-05 02:00:00 -1.1 4 Noroeste 5 Noroeste 0 -- -- 88
2019-04-05 01:00:00 -0.2 0 Calma 4 Sudeste 0 -- -- 84
2019-04-05 00:00:00 0.8 0 Calma 8 Noroeste 0 -- -- 83
2019-04-04 23:00:00 0.1 5 Noroeste 13 Noroeste 0 -- -- 91
2019-04-04 22:00:00 1.1 6 Noroeste 9 Noroeste 0 -- -- 91
2019-04-04 21:00:00 3.1 2 Sudeste 9 Sur 0 -- -- 82
2019-04-04 20:00:00 5.1 9 Sur 19 Sur 0 -- -- 74
2019-04-04 19:00:00 6.9 9 Sur 19 Sudeste 0 -- -- 66
2019-04-04 18:00:00 6.4 7 Sur 24 Sudoeste 0 -- -- 71
2019-04-04 17:00:00 6.1 8 Sur 23 Sur 0 -- -- 77
2019-04-04 16:00:00 7.7 13 Sur 24 Sur 0 -- -- 67
2019-04-04 15:00:00 8.1 7 Sudeste 18 Sur 0 -- -- 60
2019-04-04 14:00:00 8.8 7 Sur 14 Sur 0 -- -- 56
2019-04-04 13:00:00 6.8 3 Este 14 Sur 0 -- -- 67
2019-04-04 12:00:00 7 3 Nordeste 9 Nordeste 0 -- -- 59
2019-04-04 11:00:00 4.2 3 Oeste 18 Noroeste 0 -- -- 66
2019-04-04 10:00:00 0.6 10 Noroeste 21 Noroeste 0 -- -- 87
2019-04-04 09:00:00 -1 9 Noroeste 19 Norte 0 -- -- 91
2019-04-04 08:00:00 -1.4 10 Noroeste 15 Noroeste 0 -- -- 95
2019-04-04 07:00:00 -1 5 Norte 10 Este 0 -- -- 94
2019-04-04 06:00:00 -0.1 5 Sudoeste 16 Sudoeste 0 -- -- 90
2019-04-04 05:00:00 -0.5 2 Noroeste 5 Sudoeste 0 -- -- 97
2019-04-04 04:00:00 0.7 2 Sur 9 Sur 0 -- -- 98
2019-04-04 03:00:00 1.5 4 Sur 8 Sur 0 -- -- 99
2019-04-04 02:00:00 1.4 2 Nordeste 8 Sudeste 0 -- -- 98
2019-04-04 01:00:00 1.5 2 Sur 10 Este 0 -- -- 99
2019-04-04 00:00:00 2.1 3 Este 11 Este 0.2 -- -- 98
2019-04-03 23:00:00 2.9 3 Sudeste 14 Este 0 -- -- 96
2019-04-03 22:00:00 4.1 3 Oeste 17 Oeste 2.8 -- -- 91
2019-04-03 21:00:00 4.5 4 Oeste 17 Noroeste 1.6 -- -- 92
2019-04-03 20:00:00 4.9 5 Norte 20 Noroeste 0.4 -- -- 92
2019-04-03 19:00:00 5.6 11 Noroeste 23 Oeste 1.2 -- -- 88
2019-04-03 18:00:00 8 8 Sudoeste 15 Sudoeste 0.4 -- -- 76
2019-04-03 17:00:00 10 6 Oeste 24 Oeste 0 -- -- 58
2019-04-03 16:00:00 10.9 13 Oeste 31 Oeste 0 -- -- 58
2019-04-03 15:00:00 9.3 6 Sur 15 Sur 0 -- -- 82
2019-04-03 14:00:00 8.8 8 Sudoeste 24 Sur 4 -- -- 84
2019-04-03 13:00:00 11.8 8 Sur 28 Oeste 0 -- -- 71
2019-04-03 12:00:00 10.8 13 Oeste 26 Sudoeste 0 -- -- 75
2019-04-03 11:00:00 11.1 13 Sudoeste 26 Sudoeste 0 -- -- 77
2019-04-03 10:00:00 8.3 12 Sudoeste 30 Sudoeste 0 -- -- 99
2019-04-03 09:00:00 6.9 2 Oeste 10 Sur 0.6 -- -- 99
2019-04-03 08:00:00 6 6 Sur 10 Sur 0.4 -- -- 99
2019-04-03 07:00:00 4.4 0 Calma 4 Sudeste 0 -- -- 99
2019-04-03 06:00:00 4.5 0 Calma 3 Norte 0 -- -- 99
2019-04-03 05:00:00 4 0 Calma 4 Nordeste 0 -- -- 98
2019-04-03 04:00:00 3.8 0 Calma 5 Nordeste 0 -- -- 98
2019-04-03 03:00:00 4.5 3 Norte 5 Noroeste 0 -- -- 97
2019-04-03 02:00:00 5.6 0 Calma 8 Noroeste 0 -- -- 97
2019-04-03 01:00:00 6.4 2 Norte 7 Noroeste 0 -- -- 97
2019-04-03 00:00:00 6.4 0 Calma 6 Sur 0.4 -- -- 97
2019-04-02 23:00:00 6.4 5 Nordeste 14 Norte 2.8 -- -- 97
2019-04-02 22:00:00 6.5 2 Este 6 Oeste 0 -- -- 97
2019-04-02 21:00:00 6.4 3 Este 12 Sur 3.8 -- -- 96
2019-04-02 20:00:00 5.9 4 Noroeste 25 Nordeste 12.2 -- -- 96
2019-04-02 19:00:00 8 6 Nordeste 15 Nordeste 1.2 -- -- 90
2019-04-02 18:00:00 10.3 5 Sudeste 20 Este 0 -- -- 82
2019-04-02 17:00:00 12.1 5 Este 17 Este 0 -- -- 74
2019-04-02 16:00:00 13.1 5 Sudeste 14 Este 0 -- -- 69
2019-04-02 15:00:00 13.5 7 Sudeste 19 Sur 0 -- -- 59
2019-04-02 14:00:00 13.1 5 Sudeste 19 Sur 0 -- -- 60
2019-04-02 13:00:00 14.4 8 Sudeste 17 Sur 0 -- -- 55
2019-04-02 12:00:00 14.3 6 Sudeste 15 Este 0 -- -- 57
2019-04-02 11:00:00 12.4 6 Sur 13 Sur 0 -- -- 59
2019-04-02 10:00:00 11.2 5 Norte 11 Norte 0 -- -- 58
2019-04-02 09:00:00 8.9 5 Norte 13 Noroeste 0 -- -- 67
2019-04-02 08:00:00 8.1 7 Noroeste 15 Norte 0 -- -- 73
2019-04-02 07:00:00 8 13 Norte 18 Noroeste 0 -- -- 73
2019-04-02 06:00:00 8 15 Norte 24 Noroeste 0 -- -- 73
2019-04-02 05:00:00 8.3 15 Noroeste 29 Noroeste 0 -- -- 71
2019-04-02 04:00:00 8 16 Noroeste 30 Noroeste 0 -- -- 71
2019-04-02 03:00:00 8.2 17 Noroeste 28 Noroeste 0 -- -- 69
2019-04-02 02:00:00 7.8 14 Noroeste 28 Norte 0 -- -- 67
2019-04-02 01:00:00 7.1 6 Norte 15 Noroeste 0 -- -- 69
2019-04-02 00:00:00 6.4 3 Norte 9 Norte 0 -- -- 71
2019-04-01 23:00:00 5.3 0 Calma 5 Noroeste 0 -- -- 82
2019-04-01 22:00:00 5.7 3 Noroeste 5 Norte 0 -- -- 79
2019-04-01 21:00:00 7.5 3 Norte 7 Sudoeste 0 -- -- 72
2019-04-01 20:00:00 10.2 5 Sur 15 Sur 0 -- -- 62
2019-04-01 19:00:00 12.5 9 Sur 21 Sur 0 -- -- 54
2019-04-01 18:00:00 13.6 13 Sur 23 Sudoeste 0 -- -- 53
2019-04-01 17:00:00 15.1 10 Sur 21 Sur 0 -- -- 47
2019-04-01 16:00:00 15.1 14 Sur 24 Sur 0 -- -- 44
2019-04-01 15:00:00 16.3 6 Sur 18 Este 0 -- -- 38
2019-04-01 14:00:00 15.9 6 Sudeste 27 Sur 0 -- -- 37
2019-04-01 13:00:00 14.2 5 Sudeste 14 Sur 0 -- -- 42
2019-04-01 12:00:00 13.2 5 Sudeste 14 Sur 0 -- -- 46
2019-04-01 11:00:00 11.1 3 Sudeste 8 Sur 0 -- -- 57
2019-04-01 10:00:00 9.1 2 Sur 4 Sur 0 -- -- 66
2019-04-01 09:00:00 6.1 0 Calma 5 Noroeste 0 -- -- 80
2019-04-01 08:00:00 4.9 3 Noroeste 4 Noroeste 0 -- -- 83
2019-04-01 07:00:00 4.8 2 Norte 5 Norte 0 -- -- 80
2019-04-01 06:00:00 5.1 0 Calma 4 Sur 0 -- -- 74
2019-04-01 05:00:00 4.4 0 Calma 4 Noroeste 0 -- -- 74
2019-04-01 04:00:00 3 2 Noroeste 10 Norte 0 -- -- 73
2019-04-01 03:00:00 2.7 3 Noroeste 5 Noroeste 0 -- -- 78
2019-04-01 02:00:00 4.1 0 Calma 3 Norte 0 -- -- 75
2019-04-01 01:00:00 4.7 0 Calma 5 Norte 0 -- -- 80
2019-04-01 00:00:00 5.4 0 Calma 3 Norte 0 -- -- 83
2019-03-31 23:00:00 5.6 2 Noroeste 3 Norte 0 -- -- 83
2019-03-31 22:00:00 6.4 3 Norte 4 Norte 0 -- -- 80
2019-03-31 21:00:00 7.4 0 Calma 8 Sur 0 -- -- 75
2019-03-31 20:00:00 8.9 7 Sur 12 Sur 0 -- -- 69
2019-03-31 19:00:00 11.2 4 Sudeste 11 Sudeste 0 -- -- 62
2019-03-31 18:00:00 11.7 4 Este 14 Sur 0 -- -- 66
2019-03-31 17:00:00 13.1 6 Sudeste 18 Sudeste 0 -- -- 63
2019-03-31 16:00:00 12.1 4 Sudeste 14 Norte 0 -- -- 62
2019-03-31 15:00:00 12.2 5 Sudeste 15 Este 0 -- -- 65
2019-03-31 14:00:00 11.7 5 Sudeste 16 Sudoeste 0 -- -- 70
2019-03-31 13:00:00 10.2 5 Sudeste 11 Este 0 -- -- 74
2019-03-31 12:00:00 7.8 3 Sudeste 9 Nordeste 0 -- -- 90
2019-03-31 11:00:00 6.9 2 Sur 10 Sudeste 0 -- -- 90
2019-03-31 10:00:00 6.1 0 Calma 7 Este 0 -- -- 98
2019-03-31 09:00:00 5.1 0 Calma 6 Sur 0 -- -- 99
2019-03-31 08:00:00 2.9 2 Norte 6 Norte 0 -- -- 99
2019-03-31 07:00:00 1.6 3 Norte 4 Norte 0 -- -- 99
2019-03-31 06:00:00 0.6 0 Calma 3 Noroeste 0 -- -- 98
2019-03-31 05:00:00 0.8 3 Noroeste 4 Noroeste 0 -- -- 97
2019-03-31 03:00:00 1.1 5 Norte 7 Norte 0 -- -- 95
2019-03-31 01:00:00 1.2 3 Norte 6 Norte 0 -- -- 94
2019-03-31 00:00:00 2.8 3 Noroeste 7 Oeste 0 -- -- 92
2019-03-30 23:00:00 5.1 3 Noroeste 6 Sudoeste 0 -- -- 91
2019-03-30 22:00:00 5.5 0 Calma 10 Sudeste 0 -- -- 88
2019-03-30 21:00:00 6 6 Sur 10 Sur 0 -- -- 92
2019-03-30 20:00:00 6.2 7 Sur 12 Sur 0 -- -- 89
2019-03-30 19:00:00 7.4 4 Sudeste 14 Sur 0 -- -- 78
2019-03-30 18:00:00 9.3 6 Sudeste 19 Sur 0 -- -- 69
2019-03-30 17:00:00 11.8 9 Sur 25 Sudoeste 0 -- -- 60
2019-03-30 16:00:00 12.3 13 Sur 23 Sur 0 -- -- 57
2019-03-30 15:00:00 12.5 9 Sudeste 22 Sudoeste 0 -- -- 59
2019-03-30 14:00:00 11.4 11 Sur 22 Sur 0 -- -- 60
2019-03-30 13:00:00 11.1 6 Sudeste 21 Sudoeste 0 -- -- 61
2019-03-30 12:00:00 10.2 12 Sur 21 Sur 0 -- -- 60
2019-03-30 11:00:00 9 12 Sur 21 Sudeste 0 -- -- 69
2019-03-30 10:00:00 7.7 6 Sur 14 Sur 0 -- -- 73
2019-03-30 09:00:00 3.9 6 Sur 9 Sudeste 0 -- -- 80
2019-03-30 08:00:00 -0.4 0 Calma 6 Norte 0 -- -- 98
2019-03-30 07:00:00 -1.4 3 Noroeste 5 Norte 0 -- -- 96
2019-03-30 06:00:00 -1.4 3 Noroeste 5 Norte 0 -- -- 95
2019-03-30 05:00:00 -1 2 Norte 4 Norte 0 -- -- 94
2019-03-30 04:00:00 -0.9 4 Noroeste 5 Noroeste 0 -- -- 91
2019-03-30 03:00:00 -1.3 2 Norte 4 Noroeste 0 -- -- 86
2019-03-30 02:00:00 -0.7 0 Calma 3 Norte 0 -- -- 81
2019-03-30 01:00:00 -0.2 0 Calma 4 Noroeste 0 -- -- 78
2019-03-30 00:00:00 0.9 0 Calma 3 Sur 0 -- -- 75
2019-03-29 23:00:00 1.1 0 Calma 4 Sur 0 -- -- 77
2019-03-29 22:00:00 1.4 2 Norte 4 Norte 0 -- -- 74
2019-03-29 21:00:00 3 3 Norte 4 Noroeste 0 -- -- 69
2019-03-29 20:00:00 5.2 2 Noroeste 8 Sur 0 -- -- 62
2019-03-29 19:00:00 8.1 9 Sur 13 Sur 0 -- -- 52
2019-03-29 18:00:00 11.2 4 Este 14 Sur 0 -- -- 47
2019-03-29 17:00:00 11.8 8 Sudeste 23 Sur 0 -- -- 46
2019-03-29 16:00:00 12.5 11 Sur 26 Sur 0 -- -- 43
2019-03-29 15:00:00 13 10 Sudeste 25 Sur 0 -- -- 40
2019-03-29 14:00:00 12.6 15 Sur 34 Sur 0 -- -- 38
2019-03-29 13:00:00 12.5 13 Sur 27 Sur 0 -- -- 37
2019-03-29 12:00:00 12 13 Sur 28 Sur 0 -- -- 39
2019-03-29 11:00:00 11.5 9 Sur 22 Sur 0 -- -- 42
2019-03-29 10:00:00 10.3 5 Este 15 Sudeste 0 -- -- 52
2019-03-29 09:00:00 6.9 4 Este 10 Este 0 -- -- 71
2019-03-29 08:00:00 2.6 0 Calma 3 Norte 0 -- -- 88
2019-03-29 07:00:00 0.8 2 Noroeste 4 Norte 0 -- -- 90
2019-03-29 06:00:00 1.4 0 Calma 4 Norte 0 -- -- 91
2019-03-29 05:00:00 1.4 3 Norte 8 Noroeste 0 -- -- 90
2019-03-29 04:00:00 2.6 4 Norte 16 Norte 0 -- -- 81
2019-03-29 03:00:00 5.5 10 Norte 17 Norte 0 -- -- 71
2019-03-29 02:00:00 5.2 10 Norte 21 Norte 0 -- -- 69
2019-03-29 01:00:00 5.7 10 Norte 19 Noroeste 0 -- -- 74
2019-03-29 00:00:00 6.2 9 Norte 14 Norte 0 -- -- 75
2019-03-28 23:00:00 6.2 9 Norte 16 Norte 0 -- -- 76
2019-03-28 22:00:00 6.1 2 Norte 4 Noroeste 0 -- -- 77
2019-03-28 21:00:00 7.5 2 Norte 5 Norte 0 -- -- 73
2019-03-28 20:00:00 7.9 2 Noroeste 8 Sudoeste 0 -- -- 71
2019-03-28 19:00:00 8.7 6 Sudoeste 12 Sur 0 -- -- 69
2019-03-28 18:00:00 11.3 3 Este 15 Este 0 -- -- 58
2019-03-28 17:00:00 12.8 5 Este 21 Sur 0 -- -- 53
2019-03-28 16:00:00 13.9 7 Sudeste 22 Sur 0 -- -- 49
2019-03-28 15:00:00 13.3 13 Sur 25 Sur 0 -- -- 46
2019-03-28 14:00:00 14.8 10 Sur 18 Sur 0 -- -- 42
2019-03-28 13:00:00 13.9 9 Norte 25 Norte 0 -- -- 30
2019-03-28 12:00:00 12.8 13 Noroeste 32 Norte 0 -- -- 31
2019-03-28 11:00:00 11.6 15 Norte 24 Noroeste 0 -- -- 31
2019-03-28 10:00:00 9.7 3 Sudoeste 11 Sudoeste 0 -- -- 43
2019-03-28 09:00:00 5.4 4 Sur 6 Sudoeste 0 -- -- 54
2019-03-28 08:00:00 1.1 0 Calma 3 Noroeste 0 -- -- 66
2019-03-28 07:00:00 -0.7 2 Noroeste 5 Norte 0 -- -- 73
2019-03-28 06:00:00 0.2 0 Calma 4 Sudoeste 0 -- -- 69
2019-03-28 05:00:00 0.5 0 Calma 3 Oeste 0 -- -- 69
2019-03-28 04:00:00 1.2 2 Noroeste 4 Oeste 0 -- -- 69
2019-03-28 03:00:00 1.7 3 Noroeste 6 Noroeste 0 -- -- 68
2019-03-28 02:00:00 1.4 3 Noroeste 8 Nordeste 0 -- -- 70
2019-03-28 01:00:00 1.3 3 Norte 6 Nordeste 0 -- -- 71
2019-03-28 00:00:00 1.4 2 Noroeste 6 Norte 0 -- -- 72
2019-03-27 23:00:00 2.3 3 Norte 5 Norte 0 -- -- 70
2019-03-27 22:00:00 4.2 0 Calma 8 Nordeste 0 -- -- 63
2019-03-27 21:00:00 3.8 3 Norte 9 Norte 0 -- -- 69
2019-03-27 20:00:00 5.7 3 Noroeste 5 Sudoeste 0 -- -- 65
2019-03-27 19:00:00 8.7 6 Sur 18 Sur 0 -- -- 56
2019-03-27 18:00:00 11.7 9 Sur 23 Sur 0 -- -- 46
2019-03-27 17:00:00 12.5 8 Sur 22 Sudoeste 0 -- -- 44
2019-03-27 16:00:00 14.5 5 Sudeste 25 Sur 0 -- -- 39
2019-03-27 15:00:00 15.3 6 Sur 17 Nordeste 0 -- -- 27
2019-03-27 14:00:00 15.6 6 Sudeste 18 Este 0 -- -- 25
2019-03-27 13:00:00 13.9 11 Sur 22 Sur 0 -- -- 27
2019-03-27 12:00:00 13.9 7 Sudeste 16 Noroeste 0 -- -- 30
2019-03-27 11:00:00 12.5 7 Oeste 17 Noroeste 0 -- -- 27
2019-03-27 10:00:00 9.7 12 Norte 21 Norte 0 -- -- 32
2019-03-27 09:00:00 7.4 12 Noroeste 27 Norte 0 -- -- 40
2019-03-27 08:00:00 5.4 15 Norte 26 Norte 0 -- -- 43
2019-03-27 07:00:00 3.5 11 Norte 21 Norte 0 -- -- 46
2019-03-27 06:00:00 0.6 9 Norte 15 Norte 0 -- -- 53
2019-03-27 05:00:00 -1.9 0 Calma 6 Noroeste 0 -- -- 57
2019-03-27 04:00:00 -1 3 Norte 4 Norte 0 -- -- 51
2019-03-27 03:00:00 0.3 0 Calma 4 Noroeste 0 -- -- 45
2019-03-27 02:00:00 1.3 0 Calma 3 Norte 0 -- -- 43
2019-03-27 01:00:00 3.1 0 Calma 6 Sudoeste 0 -- -- 39
2019-03-27 00:00:00 5.9 4 Sudoeste 14 Norte 0 -- -- 31